createdAt,value
2018-07-11T00:01:54.464Z,101859.31
2018-07-11T00:04:23.822Z,101855.05
2018-07-11T00:06:52.883Z,101853.48
2018-07-11T00:09:22.361Z,101855.28
2018-07-11T00:11:51.419Z,101856.56
2018-07-11T00:14:20.196Z,101865.45
2018-07-11T00:16:54.775Z,101862.89
2018-07-11T00:19:23.540Z,101866.63
2018-07-11T00:21:52.454Z,101866.53
2018-07-11T00:24:21.763Z,101863.01
2018-07-11T00:26:50.751Z,101854.97
2018-07-11T00:29:19.730Z,101861.09
2018-07-11T00:31:48.553Z,101867.17
2018-07-11T00:34:17.468Z,101860.41
2018-07-11T00:36:46.219Z,101860.70
2018-07-11T00:39:15.755Z,101861.38
2018-07-11T00:41:44.719Z,101855.23
2018-07-11T00:44:13.688Z,101853.59
2018-07-11T00:46:43.014Z,101852.66
2018-07-11T00:49:12.115Z,101859.34
2018-07-11T00:51:41.038Z,101860.17
2018-07-11T00:54:10.347Z,101860.32
2018-07-11T00:56:40.511Z,101862.02
2018-07-11T00:59:19.973Z,101867.08
2018-07-11T01:01:49.247Z,101861.23
2018-07-11T01:04:18.541Z,101855.95
2018-07-11T01:06:48.282Z,101853.86
2018-07-11T01:09:17.351Z,101850.73
2018-07-11T01:11:46.457Z,101845.52
2018-07-11T01:14:15.897Z,101840.69
2018-07-11T01:16:44.808Z,101844.25
2018-07-11T01:19:16.113Z,101836.58
2018-07-11T01:21:45.655Z,101833.82
2018-07-11T01:24:14.443Z,101834.88
2018-07-11T01:26:43.236Z,101828.73
2018-07-11T01:29:12.416Z,101824.06
2018-07-11T01:31:41.288Z,101824.42
2018-07-11T01:34:10.101Z,101831.73
2018-07-11T01:36:39.323Z,101846.80
2018-07-11T01:39:08.115Z,101841.47
2018-07-11T01:41:37.073Z,101832.64
2018-07-11T01:44:05.930Z,101822.55
2018-07-11T01:46:45.367Z,101820.28
2018-07-11T01:49:14.664Z,101828.28
2018-07-11T01:51:59.135Z,101823.00
2018-07-11T01:54:29.021Z,101827.92
2018-07-11T01:56:58.043Z,101824.77
2018-07-11T01:59:34.141Z,101824.83
2018-07-11T02:02:03.505Z,101827.30
2018-07-11T02:04:35.840Z,101827.20
2018-07-11T02:07:04.837Z,101822.34
2018-07-11T02:09:33.816Z,101822.53
2018-07-11T02:12:03.723Z,101820.94
2018-07-11T02:14:32.530Z,101823.41
2018-07-11T02:17:01.569Z,101821.48
2018-07-11T02:19:30.871Z,101812.55
2018-07-11T02:21:59.880Z,101816.00
2018-07-11T02:24:28.847Z,101815.30
2018-07-11T02:26:58.011Z,101810.48
2018-07-11T02:29:26.923Z,101797.94
2018-07-11T02:31:55.640Z,101796.77
2018-07-11T02:34:30.307Z,101810.31
2018-07-11T02:36:59.169Z,101806.00
2018-07-11T02:39:28.008Z,101803.77
2018-07-11T02:41:57.851Z,101803.42
2018-07-11T02:44:26.561Z,101807.23
2018-07-11T02:47:01.328Z,101814.67
2018-07-11T02:49:30.403Z,101810.00
2018-07-11T02:51:59.348Z,101798.03
2018-07-11T02:54:28.197Z,101789.92
2018-07-11T02:56:56.954Z,101800.31
2018-07-11T02:59:25.743Z,101802.73
2018-07-11T03:01:55.083Z,101790.63
2018-07-11T03:04:24.016Z,101774.73
2018-07-11T03:06:52.721Z,101776.34
2018-07-11T03:09:21.969Z,101779.95
2018-07-11T03:11:50.878Z,101784.20
2018-07-11T03:14:19.755Z,101784.97
2018-07-11T03:16:48.949Z,101771.84
2018-07-11T03:19:17.795Z,101781.26
2018-07-11T03:21:46.968Z,101779.98
2018-07-11T03:24:16.850Z,101791.30
2018-07-11T03:26:45.621Z,101797.69
2018-07-11T03:29:15.480Z,101794.23
2018-07-11T03:31:44.658Z,101795.61
2018-07-11T03:34:13.463Z,101797.17
2018-07-11T03:36:42.288Z,101806.06
2018-07-11T03:39:11.547Z,101800.75
2018-07-11T03:41:40.340Z,101793.52
2018-07-11T03:44:09.132Z,101795.34
2018-07-11T03:46:38.567Z,101787.58
2018-07-11T03:49:07.180Z,101784.11
2018-07-11T03:51:36.115Z,101776.33
2018-07-11T03:54:05.309Z,101786.80
2018-07-11T03:56:34.087Z,101785.19
2018-07-11T03:59:02.905Z,101788.10
2018-07-11T04:01:31.871Z,101782.47
2018-07-11T04:04:00.530Z,101785.00
2018-07-11T04:06:29.299Z,101780.20
2018-07-11T04:08:58.216Z,101777.90
2018-07-11T04:11:27.042Z,101780.48
2018-07-11T04:13:55.802Z,101783.89
2018-07-11T04:16:24.941Z,101787.92
2018-07-11T04:18:53.724Z,101787.37
2018-07-11T04:21:22.496Z,101790.63
2018-07-11T04:23:51.444Z,101784.38
2018-07-11T04:26:20.174Z,101789.50
2018-07-11T04:28:48.999Z,101793.83
2018-07-11T04:31:18.017Z,101784.05
2018-07-11T04:33:46.705Z,101781.99
2018-07-11T04:36:15.462Z,101785.91
2018-07-11T04:38:44.750Z,101785.92
2018-07-11T04:41:13.803Z,101786.77
2018-07-11T04:43:42.792Z,101779.70
2018-07-11T04:46:12.062Z,101777.80
2018-07-11T04:48:41.707Z,101774.73
2018-07-11T04:51:10.619Z,101774.67
2018-07-11T04:53:39.708Z,101780.07
2018-07-11T04:56:08.613Z,101779.81
2018-07-11T04:58:37.459Z,101778.41
2018-07-11T05:01:06.858Z,101786.52
2018-07-11T05:03:35.755Z,101784.15
2018-07-11T05:06:05.011Z,101785.80
2018-07-11T05:08:34.119Z,101789.13
2018-07-11T05:11:02.952Z,101785.73
2018-07-11T05:13:31.710Z,101794.45
2018-07-11T05:16:00.763Z,101796.28
2018-07-11T05:18:29.633Z,101794.05
2018-07-11T05:20:58.394Z,101797.50
2018-07-11T05:23:27.308Z,101787.44
2018-07-11T05:25:55.943Z,101787.20
2018-07-11T05:28:24.723Z,101788.89
2018-07-11T05:30:53.682Z,101784.62
2018-07-11T05:33:22.287Z,101785.08
2018-07-11T05:35:51.078Z,101769.64
2018-07-11T05:38:20.071Z,101762.97
2018-07-11T05:40:52.894Z,101758.33
2018-07-11T05:43:21.757Z,101758.03
2018-07-11T05:45:56.497Z,101762.45
2018-07-11T05:48:25.508Z,101756.44
2018-07-11T05:50:54.299Z,101748.78
2018-07-11T05:53:23.111Z,101751.42
2018-07-11T05:55:52.275Z,101751.92
2018-07-11T05:58:20.825Z,101752.43
2018-07-11T06:00:49.593Z,101746.30
2018-07-11T06:03:18.269Z,101739.50
2018-07-11T06:05:47.075Z,101741.20
2018-07-11T06:08:15.833Z,101735.26
2018-07-11T06:10:44.823Z,101746.27
2018-07-11T06:13:13.648Z,101747.81
2018-07-11T06:15:42.394Z,101747.07
2018-07-11T06:18:11.389Z,101741.85
2018-07-11T06:20:40.184Z,101747.16
2018-07-11T06:23:09.000Z,101749.64
2018-07-11T06:25:38.078Z,101746.21
2018-07-11T06:28:06.864Z,101745.70
2018-07-11T06:30:35.673Z,101739.92
2018-07-11T06:33:05.051Z,101742.56
2018-07-11T06:35:33.803Z,101742.67
2018-07-11T06:38:02.580Z,101740.83
2018-07-11T06:40:31.633Z,101742.67
2018-07-11T06:43:00.427Z,101740.50
2018-07-11T06:45:35.339Z,101747.72
2018-07-11T06:48:04.204Z,101745.43
2018-07-11T06:50:32.967Z,101744.11
2018-07-11T06:53:02.131Z,101742.45
2018-07-11T06:55:30.891Z,101743.45
2018-07-11T06:57:59.680Z,101740.23
2018-07-11T07:00:28.812Z,101743.98
2018-07-11T07:02:57.582Z,101753.05
2018-07-11T07:05:26.411Z,101744.64
2018-07-11T07:07:55.480Z,101747.59
2018-07-11T07:10:24.231Z,101745.64
2018-07-11T07:12:53.016Z,101752.34
2018-07-11T07:15:22.221Z,101740.79
2018-07-11T07:17:51.036Z,101738.91
2018-07-11T07:20:19.926Z,101740.66
2018-07-11T07:22:48.893Z,101738.69
2018-07-11T07:25:17.701Z,101730.59
2018-07-11T07:27:46.501Z,101731.31
2018-07-11T07:30:15.517Z,101735.37
2018-07-11T07:32:44.314Z,101728.06
2018-07-11T07:35:13.116Z,101722.05
2018-07-11T07:37:42.012Z,101715.50
2018-07-11T07:40:10.803Z,101714.48
2018-07-11T07:42:39.719Z,101712.84
2018-07-11T07:45:08.737Z,101716.05
2018-07-11T07:47:44.334Z,101710.15
2018-07-11T07:50:14.560Z,101714.45
2018-07-11T07:52:43.609Z,101714.34
2018-07-11T07:55:12.616Z,101713.28
2018-07-11T07:57:42.331Z,101714.05
2018-07-11T08:00:11.152Z,101713.11
2018-07-11T08:02:40.147Z,101716.36
2018-07-11T08:05:09.974Z,101713.92
2018-07-11T08:07:39.363Z,101717.17
2018-07-11T08:10:08.859Z,101714.50
2018-07-11T08:12:38.118Z,101714.06
2018-07-11T08:15:07.779Z,101708.83
2018-07-11T08:17:36.812Z,101709.45
2018-07-11T08:20:06.059Z,101709.15
2018-07-11T08:23:22.376Z,101711.25
2018-07-11T08:26:08.459Z,101703.17
2018-07-11T08:31:00.435Z,101704.83
2018-07-11T08:34:00.647Z,101695.22
2018-07-11T08:36:46.434Z,101700.52
2018-07-11T08:40:31.328Z,101702.28
2018-07-11T08:44:22.315Z,101696.33
2018-07-11T08:47:09.140Z,101699.38
2018-07-11T08:50:11.836Z,101698.16
2018-07-11T08:57:08.284Z,101702.87
2018-07-11T09:00:19.332Z,101696.45
2018-07-11T09:03:05.247Z,101689.23
2018-07-11T09:06:54.948Z,101689.89
2018-07-11T09:09:40.857Z,101692.52
2018-07-11T09:13:53.014Z,101693.84
2018-07-11T09:18:41.411Z,101693.14
2018-07-11T09:22:32.640Z,101690.75
2018-07-11T09:25:01.729Z,101692.75
2018-07-11T09:27:30.580Z,101685.55
2018-07-11T09:29:59.479Z,101683.79
2018-07-11T09:32:28.526Z,101690.24
2018-07-11T09:34:57.383Z,101681.36
2018-07-11T09:37:26.166Z,101685.73
2018-07-11T09:39:55.258Z,101682.84
2018-07-11T09:42:24.217Z,101680.27
2018-07-11T09:44:53.177Z,101679.81
2018-07-11T09:47:28.518Z,101670.33
2018-07-11T09:49:57.525Z,101682.84
2018-07-11T09:52:26.280Z,101676.80
2018-07-11T09:54:55.352Z,101672.59
2018-07-11T09:57:25.457Z,101671.67
2018-07-11T09:59:54.206Z,101670.09
2018-07-11T10:02:22.994Z,101673.89
2018-07-11T10:04:52.439Z,101661.45
2018-07-11T10:07:22.382Z,101668.13
2018-07-11T10:09:51.376Z,101672.85
2018-07-11T10:12:20.326Z,101667.73
2018-07-11T10:14:49.223Z,101665.23
2018-07-11T10:17:18.411Z,101666.06
2018-07-11T10:19:47.246Z,101662.53
2018-07-11T10:22:16.104Z,101670.33
2018-07-11T10:24:45.385Z,101664.73
2018-07-11T10:27:14.034Z,101671.16
2018-07-11T10:29:42.910Z,101664.64
2018-07-11T10:32:12.189Z,101660.06
2018-07-11T10:34:40.972Z,101655.01
2018-07-11T10:37:09.775Z,101660.76
2018-07-11T10:39:38.728Z,101657.78
2018-07-11T10:42:07.501Z,101658.79
2018-07-11T10:44:36.383Z,101647.31
2018-07-11T10:47:10.260Z,101662.73
2018-07-11T10:49:39.260Z,101656.97
2018-07-11T10:52:08.430Z,101658.77
2018-07-11T10:54:37.979Z,101653.63
2018-07-11T10:57:06.899Z,101655.84
2018-07-11T10:59:35.831Z,101654.03
2018-07-11T11:02:04.773Z,101650.02
2018-07-11T11:04:33.523Z,101638.02
2018-07-11T11:07:02.655Z,101652.07
2018-07-11T11:09:31.697Z,101650.06
2018-07-11T11:12:00.603Z,101649.91
2018-07-11T11:14:29.837Z,101647.69
2018-07-11T11:16:58.782Z,101648.67
2018-07-11T11:19:27.984Z,101647.69
2018-07-11T11:21:56.935Z,101636.02
2018-07-11T11:24:26.176Z,101645.14
2018-07-11T11:26:55.007Z,101646.92
2018-07-11T11:29:23.759Z,101650.87
2018-07-11T11:31:53.004Z,101652.26
2018-07-11T11:34:22.109Z,101656.23
2018-07-11T11:36:50.968Z,101656.03
2018-07-11T11:39:20.100Z,101649.87
2018-07-11T11:41:48.989Z,101651.67
2018-07-11T11:44:17.594Z,101653.05
2018-07-11T11:46:46.751Z,101659.18
2018-07-11T11:49:15.427Z,101647.71
2018-07-11T11:51:44.288Z,101651.25
2018-07-11T11:54:13.389Z,101654.39
2018-07-11T11:56:42.219Z,101664.72
2018-07-11T11:59:11.011Z,101654.64
2018-07-11T12:01:39.973Z,101652.84
2018-07-11T12:04:09.073Z,101649.69
2018-07-11T12:06:37.981Z,101655.25
2018-07-11T12:09:07.519Z,101655.78
2018-07-11T12:11:36.364Z,101648.28
2018-07-11T12:14:05.400Z,101653.41
2018-07-11T12:16:34.649Z,101664.54
2018-07-11T12:19:03.443Z,101657.80
2018-07-11T12:21:32.319Z,101657.56
2018-07-11T12:24:01.535Z,101656.39
2018-07-11T12:26:30.524Z,101658.77
2018-07-11T12:28:59.216Z,101655.02
2018-07-11T12:31:28.725Z,101657.20
2018-07-11T12:33:57.637Z,101659.14
2018-07-11T12:36:26.456Z,101662.67
2018-07-11T12:38:56.324Z,101654.89
2018-07-11T12:41:25.347Z,101646.59
2018-07-11T12:43:54.267Z,101647.48
2018-07-11T12:46:23.608Z,101639.10
2018-07-11T12:48:58.075Z,101648.27
2018-07-11T12:51:27.293Z,101642.41
2018-07-11T12:53:56.244Z,101639.22
2018-07-11T12:56:25.903Z,101639.45
2018-07-11T12:58:55.779Z,101650.73
2018-07-11T13:01:25.134Z,101653.32
2018-07-11T13:03:55.945Z,101647.53
2018-07-11T13:06:27.035Z,101647.53
2018-07-11T13:08:55.948Z,101648.67
2018-07-11T13:11:25.084Z,101646.92
2018-07-11T13:13:54.124Z,101650.94
2018-07-11T13:16:22.900Z,101646.57
2018-07-11T13:18:51.603Z,101646.20
2018-07-11T13:21:20.558Z,101651.73
2018-07-11T13:23:49.634Z,101653.38
2018-07-11T13:26:18.270Z,101661.09
2018-07-11T13:28:47.298Z,101648.47
2018-07-11T13:31:16.172Z,101663.55
2018-07-11T13:33:45.156Z,101663.74
2018-07-11T13:36:14.764Z,101670.80
2018-07-11T13:38:43.610Z,101672.52
2018-07-11T13:41:12.503Z,101669.31
2018-07-11T13:43:41.402Z,101671.66
2018-07-11T13:46:10.244Z,101679.00
2018-07-11T13:48:39.079Z,101672.05
2018-07-11T13:51:08.131Z,101668.34
2018-07-11T13:53:37.086Z,101673.03
2018-07-11T13:56:06.068Z,101670.20
2018-07-11T13:58:35.411Z,101666.69
2018-07-11T14:01:04.246Z,101677.11
2018-07-11T14:03:32.922Z,101671.24
2018-07-11T14:06:01.995Z,101675.21
2018-07-11T14:08:30.916Z,101679.78
2018-07-11T14:10:59.647Z,101675.20
2018-07-11T14:13:28.877Z,101673.29
2018-07-11T14:15:57.783Z,101673.83
2018-07-11T14:18:26.824Z,101674.00
2018-07-11T14:20:56.364Z,101674.41
2018-07-11T14:23:41.754Z,101677.83
2018-07-11T14:26:13.716Z,101674.50
2018-07-11T14:28:46.996Z,101687.45
2018-07-11T14:31:37.609Z,101691.25
2018-07-11T14:34:08.459Z,101693.80
2018-07-11T14:36:37.448Z,101698.91
2018-07-11T14:39:08.435Z,101698.09
2018-07-11T14:41:37.590Z,101704.99
2018-07-11T14:44:06.510Z,101700.00
2018-07-11T14:46:35.566Z,101706.27
2018-07-11T14:49:04.439Z,101698.89
2018-07-11T14:51:33.865Z,101710.77
2018-07-11T14:54:03.033Z,101711.61
2018-07-11T14:56:32.056Z,101710.56
2018-07-11T14:59:00.831Z,101713.67
2018-07-11T15:01:30.040Z,101710.52
2018-07-11T15:03:58.777Z,101706.77
2018-07-11T15:06:27.703Z,101706.02
2018-07-11T15:08:57.057Z,101706.92
2018-07-11T15:11:25.847Z,101709.32
2018-07-11T15:13:55.128Z,101709.06
2018-07-11T15:16:24.419Z,101703.62
2018-07-11T15:18:53.444Z,101702.88
2018-07-11T15:21:22.339Z,101715.83
2018-07-11T15:23:51.420Z,101702.09
2018-07-11T15:26:20.257Z,101701.35
2018-07-11T15:28:49.363Z,101705.92
2018-07-11T15:31:18.695Z,101702.65
2018-07-11T15:33:47.547Z,101698.23
2018-07-11T15:36:16.395Z,101694.97
2018-07-11T15:38:45.632Z,101704.71
2018-07-11T15:41:15.739Z,101701.22
2018-07-11T15:43:45.172Z,101702.36
2018-07-11T15:46:14.516Z,101699.70
2018-07-11T15:48:43.949Z,101702.36
2018-07-11T15:51:13.057Z,101699.39
2018-07-11T15:53:42.090Z,101697.45
2018-07-11T15:56:11.084Z,101696.70
2018-07-11T15:58:40.100Z,101693.55
2018-07-11T16:01:11.249Z,101696.53
2018-07-11T16:03:46.496Z,101703.16
2018-07-11T16:06:17.229Z,101709.95
2018-07-11T16:08:50.203Z,101711.87
2018-07-11T16:11:19.507Z,101714.83
2018-07-11T16:13:48.365Z,101714.30
2018-07-11T16:16:17.275Z,101722.13
2018-07-11T16:18:46.369Z,101725.08
2018-07-11T16:21:15.306Z,101722.68
2018-07-11T16:23:44.500Z,101718.54
2018-07-11T16:26:13.482Z,101720.71
2018-07-11T16:28:42.447Z,101723.28
2018-07-11T16:31:11.824Z,101721.08
2018-07-11T16:33:40.874Z,101721.47
2018-07-11T16:36:09.704Z,101717.54
2018-07-11T16:38:38.418Z,101713.59
2018-07-11T16:41:07.501Z,101716.09
2018-07-11T16:43:36.480Z,101717.00
2018-07-11T16:46:05.345Z,101713.84
2018-07-11T16:48:35.185Z,101709.70
2018-07-11T16:51:03.960Z,101713.06
2018-07-11T16:53:33.063Z,101716.72
2018-07-11T16:56:02.131Z,101730.69
2018-07-11T16:58:38.458Z,101718.41
2018-07-11T17:01:07.796Z,101721.75
2018-07-11T17:03:40.004Z,101717.25
2018-07-11T17:06:10.806Z,101707.50
2018-07-11T17:08:51.197Z,101712.14
2018-07-11T17:11:26.948Z,101718.07
2018-07-11T17:14:05.361Z,101717.85
2018-07-11T17:17:06.257Z,101718.98
2018-07-11T17:20:05.322Z,101719.99
2018-07-11T17:22:59.365Z,101712.87
2018-07-11T17:25:30.594Z,101727.54
2018-07-11T17:28:03.657Z,101725.27
2018-07-11T17:30:39.860Z,101726.09
2018-07-11T17:33:13.186Z,101723.89
2018-07-11T17:35:53.340Z,101718.78
2018-07-11T17:38:26.512Z,101728.27
2018-07-11T17:40:56.139Z,101729.05
2018-07-11T17:43:33.997Z,101723.74
2018-07-11T17:46:04.183Z,101728.86
2018-07-11T17:48:43.685Z,101731.42
2018-07-11T17:51:48.151Z,101726.92
2018-07-11T17:54:17.030Z,101726.50
2018-07-11T17:56:57.540Z,101723.74
2018-07-11T17:59:41.778Z,101725.91
2018-07-11T18:05:33.784Z,101733.19
2018-07-11T18:08:08.150Z,101742.64
2018-07-11T18:10:49.392Z,101743.22
2018-07-11T18:13:31.994Z,101748.19
2018-07-11T18:16:19.415Z,101742.47
2018-07-11T18:21:22.166Z,101745.84
2018-07-11T18:26:08.175Z,101743.08
2018-07-11T18:28:48.333Z,101744.68
2018-07-11T18:31:33.204Z,101744.66
2018-07-11T18:36:24.533Z,101750.03
2018-07-11T18:39:30.416Z,101749.65
2018-07-11T18:45:21.748Z,101749.23
2018-07-11T18:49:02.568Z,101749.90
2018-07-11T18:51:47.599Z,101756.44
2018-07-11T18:55:08.745Z,101768.28
2018-07-11T18:57:54.301Z,101765.38
2018-07-11T19:01:03.640Z,101765.36
2018-07-11T19:03:40.531Z,101767.70
2018-07-11T19:07:22.183Z,101762.95
2018-07-11T19:09:55.359Z,101771.63
2018-07-11T19:12:31.352Z,101774.30
2018-07-11T19:15:08.299Z,101776.37
2018-07-11T19:20:12.410Z,101783.55
2018-07-11T19:23:06.830Z,101777.01
2018-07-11T19:26:07.909Z,101775.20
2018-07-11T19:28:51.010Z,101780.03
2018-07-11T19:31:29.414Z,101777.97
2018-07-11T19:34:10.950Z,101778.35
2018-07-11T19:37:02.004Z,101781.31
2018-07-11T19:40:44.987Z,101777.81
2018-07-11T19:43:30.892Z,101783.45
2018-07-11T19:47:24.873Z,101788.48
2018-07-11T19:50:16.115Z,101781.24
2018-07-11T19:52:57.460Z,101781.94
2018-07-11T19:56:43.060Z,101779.03
2018-07-11T19:59:12.112Z,101780.22
2018-07-11T20:01:41.176Z,101773.67
2018-07-11T20:04:11.435Z,101778.12
2018-07-11T20:06:40.359Z,101775.29
2018-07-11T20:09:09.624Z,101779.27
2018-07-11T20:11:38.761Z,101776.44
2018-07-11T20:14:07.840Z,101785.20
2018-07-11T20:16:37.067Z,101781.06
2018-07-11T20:19:05.862Z,101781.17
2018-07-11T20:21:34.952Z,101774.84
2018-07-11T20:24:03.835Z,101775.05
2018-07-11T20:26:32.911Z,101777.98
2018-07-11T20:29:01.826Z,101776.76
2018-07-11T20:31:30.660Z,101774.95
2018-07-11T20:33:59.571Z,101770.62
2018-07-11T20:36:28.412Z,101768.45
2018-07-11T20:38:58.162Z,101763.38
2018-07-11T20:41:27.075Z,101762.58
2018-07-11T20:43:56.451Z,101767.70
2018-07-11T20:46:25.639Z,101765.52
2018-07-11T20:48:54.846Z,101771.33
2018-07-11T20:51:23.939Z,101768.80
2018-07-11T20:53:52.990Z,101777.56
2018-07-11T20:56:22.048Z,101774.50
2018-07-11T20:59:07.991Z,101775.52
2018-07-11T21:01:54.186Z,101779.69
2018-07-11T21:07:49.090Z,101776.09
2018-07-11T21:12:57.590Z,101777.64
2018-07-11T21:15:46.658Z,101774.09
2018-07-11T21:19:24.461Z,101774.41
2018-07-11T21:21:53.409Z,101771.66
2018-07-11T21:24:22.336Z,101773.43
2018-07-11T21:26:51.200Z,101783.07
2018-07-11T21:29:20.109Z,101781.50
2018-07-11T21:31:49.069Z,101782.02
2018-07-11T21:34:17.797Z,101780.69
2018-07-11T21:36:46.780Z,101787.69
2018-07-11T21:39:15.867Z,101793.84
2018-07-11T21:41:44.827Z,101784.58
2018-07-11T21:44:13.812Z,101789.13
2018-07-11T21:46:42.838Z,101790.51
2018-07-11T21:49:14.772Z,101783.57
2018-07-11T21:51:43.784Z,101777.93
2018-07-11T21:54:12.518Z,101778.85
2018-07-11T21:56:41.475Z,101770.40
2018-07-11T21:59:10.215Z,101775.56
2018-07-11T22:01:40.966Z,101773.76
2018-07-11T22:04:10.171Z,101777.45
2018-07-11T22:06:39.137Z,101775.54
2018-07-11T22:09:08.064Z,101775.66
2018-07-11T22:11:37.077Z,101768.45
2018-07-11T22:14:05.931Z,101778.85
2018-07-11T22:16:34.924Z,101782.00
2018-07-11T22:19:03.901Z,101781.11
2018-07-11T22:21:31.253Z,101775.87
2018-07-11T22:23:58.336Z,101784.77
2018-07-11T22:26:25.369Z,101778.29
2018-07-11T22:28:52.607Z,101787.18
2018-07-11T22:31:19.654Z,101788.30
2018-07-11T22:33:46.737Z,101782.73
2018-07-11T22:36:13.787Z,101783.99
2018-07-11T22:38:40.864Z,101787.18
2018-07-11T22:41:07.960Z,101787.75
2018-07-11T22:43:35.049Z,101795.63
2018-07-11T22:46:02.092Z,101790.95
2018-07-11T22:48:29.165Z,101795.40
2018-07-11T22:50:56.696Z,101795.08
2018-07-11T22:53:23.826Z,101799.09
2018-07-11T22:55:50.923Z,101790.70
2018-07-11T22:58:18.411Z,101800.59
2018-07-11T23:00:45.488Z,101795.08
2018-07-11T23:03:12.520Z,101806.25
2018-07-11T23:05:40.123Z,101804.07
2018-07-11T23:08:07.178Z,101805.75
2018-07-11T23:10:34.264Z,101804.51
2018-07-11T23:13:01.305Z,101803.07
2018-07-11T23:15:28.831Z,101807.56
2018-07-11T23:17:55.942Z,101808.77
2018-07-11T23:20:23.045Z,101798.81
2018-07-11T23:22:50.271Z,101799.08
2018-07-11T23:25:17.366Z,101798.52
2018-07-11T23:27:44.452Z,101798.01
2018-07-11T23:30:11.731Z,101801.12
2018-07-11T23:32:38.777Z,101797.44
2018-07-11T23:35:05.861Z,101803.67
2018-07-11T23:37:33.352Z,101805.31
2018-07-11T23:40:00.442Z,101804.52
2018-07-11T23:42:27.558Z,101809.44
2018-07-11T23:44:54.653Z,101809.53
2018-07-11T23:47:21.682Z,101807.05
2018-07-11T23:49:48.780Z,101806.21
2018-07-11T23:52:15.872Z,101803.03
2018-07-11T23:54:42.990Z,101800.55
2018-07-11T23:57:10.068Z,101791.66
2018-07-11T23:59:37.110Z,101791.50
